createdAt,value
2023-01-06T00:00:19.956Z,5.70
2023-01-06T00:05:22.092Z,5.80
2023-01-06T00:10:24.192Z,5.70
2023-01-06T00:15:26.184Z,5.80
2023-01-06T00:20:28.478Z,5.80
2023-01-06T00:25:30.311Z,5.80
2023-01-06T00:30:32.125Z,5.80
2023-01-06T00:35:33.870Z,5.80
2023-01-06T00:40:37.336Z,5.90
2023-01-06T00:45:40.599Z,5.90
2023-01-06T00:50:43.497Z,5.90
2023-01-06T00:55:45.234Z,6.00
2023-01-06T01:00:46.987Z,6.00
2023-01-06T01:05:48.767Z,6.10
2023-01-06T01:10:50.502Z,6.10
2023-01-06T01:15:52.285Z,6.10
2023-01-06T01:20:54.020Z,6.20
2023-01-06T01:25:57.245Z,6.20
2023-01-06T01:31:03.420Z,6.10
2023-01-06T01:36:06.647Z,6.20
2023-01-06T01:41:13.672Z,6.20
2023-01-06T01:46:21.853Z,6.20
2023-01-06T01:51:28.627Z,6.20
2023-01-06T01:56:33.669Z,6.20
2023-01-06T02:01:35.763Z,6.30
2023-01-06T02:06:40.234Z,6.20
2023-01-06T02:11:44.046Z,6.20
2023-01-06T02:17:17.765Z,6.30
2023-01-06T02:23:00.636Z,6.20
2023-01-06T02:28:26.387Z,6.20
2023-01-06T02:33:49.348Z,6.30
2023-01-06T02:39:25.000Z,6.30
2023-01-06T02:44:45.120Z,6.30
2023-01-06T02:50:37.569Z,6.20
2023-01-06T02:55:46.130Z,6.20
2023-01-06T03:00:59.142Z,6.20
2023-01-06T03:06:11.430Z,6.20
2023-01-06T03:11:14.421Z,6.20
2023-01-06T03:16:16.764Z,6.20
2023-01-06T03:21:22.586Z,6.20
2023-01-06T03:26:25.932Z,6.20
2023-01-06T03:32:04.327Z,6.20
2023-01-06T03:37:09.202Z,6.20
2023-01-06T03:42:52.019Z,6.20
2023-01-06T03:48:08.696Z,6.20
2023-01-06T03:53:30.266Z,6.20
2023-01-06T03:58:34.830Z,6.20
2023-01-06T04:03:37.524Z,6.20
2023-01-06T04:08:39.522Z,6.20
2023-01-06T04:13:41.337Z,6.20
2023-01-06T04:18:43.209Z,6.10
2023-01-06T04:23:45.078Z,6.20
2023-01-06T04:28:47.856Z,6.20
2023-01-06T04:33:49.953Z,6.20
2023-01-06T04:38:52.027Z,6.20
2023-01-06T04:43:53.751Z,6.20
2023-01-06T04:48:55.471Z,6.20
2023-01-06T04:53:57.255Z,6.20
2023-01-06T04:58:59.054Z,6.20
2023-01-06T05:04:02.220Z,6.30
2023-01-06T05:09:04.120Z,6.30
2023-01-06T05:14:05.861Z,6.30
2023-01-06T05:19:07.627Z,6.30
2023-01-06T05:24:10.053Z,6.30
2023-01-06T05:29:17.510Z,6.30
2023-01-06T05:34:19.327Z,6.30
2023-01-06T05:39:21.058Z,6.40
2023-01-06T05:44:22.984Z,6.40
2023-01-06T05:49:24.758Z,6.40
2023-01-06T05:54:26.454Z,6.40
2023-01-06T05:59:28.169Z,6.40
2023-01-06T06:04:29.926Z,6.40
2023-01-06T06:09:31.701Z,6.40
2023-01-06T06:14:33.457Z,6.40
2023-01-06T06:19:35.178Z,6.40
2023-01-06T06:24:36.926Z,6.40
2023-01-06T06:29:38.642Z,6.50
2023-01-06T06:34:40.468Z,6.40
2023-01-06T06:39:42.180Z,6.50
2023-01-06T06:44:43.914Z,6.50
2023-01-06T06:49:45.681Z,6.50
2023-01-06T06:54:47.411Z,6.50
2023-01-06T06:59:49.318Z,6.50
2023-01-06T07:04:51.141Z,6.50
2023-01-06T07:09:52.938Z,6.50
2023-01-06T07:14:54.653Z,6.50
2023-01-06T07:19:56.355Z,6.50
2023-01-06T07:24:58.078Z,6.50
2023-01-06T07:29:59.950Z,6.50
2023-01-06T07:35:01.765Z,6.50
2023-01-06T07:40:03.805Z,6.60
2023-01-06T07:45:07.569Z,6.60
2023-01-06T07:50:09.445Z,6.60
2023-01-06T07:55:11.158Z,6.60
2023-01-06T08:00:13.418Z,6.70
2023-01-06T08:05:15.682Z,6.60
2023-01-06T08:10:17.507Z,6.70
2023-01-06T08:15:19.239Z,6.70
2023-01-06T08:20:21.410Z,6.70
2023-01-06T08:25:23.183Z,6.80
2023-01-06T08:30:24.886Z,6.80
2023-01-06T08:35:27.643Z,6.80
2023-01-06T08:40:29.381Z,6.90
2023-01-06T08:45:31.125Z,6.90
2023-01-06T08:50:32.834Z,6.90
2023-01-06T08:55:37.660Z,7.00
2023-01-06T09:00:43.438Z,7.00
2023-01-06T09:05:55.575Z,7.10
2023-01-06T09:10:57.309Z,7.10
2023-01-06T09:15:59.107Z,7.20
2023-01-06T09:21:01.457Z,7.20
2023-01-06T09:26:03.325Z,7.30
2023-01-06T09:31:06.344Z,7.40
2023-01-06T09:36:08.362Z,7.40
2023-01-06T09:41:31.678Z,7.50
2023-01-06T09:46:37.410Z,7.50
2023-01-06T09:51:39.277Z,7.50
2023-01-06T09:56:44.195Z,7.50
2023-01-06T10:01:48.961Z,7.50
2023-01-06T10:07:29.639Z,7.60
2023-01-06T10:12:50.118Z,7.60
2023-01-06T10:18:39.965Z,7.60
2023-01-06T10:24:21.500Z,7.70
2023-01-06T10:29:28.278Z,7.70
2023-01-06T10:34:32.437Z,7.80
2023-01-06T10:39:36.685Z,7.90
2023-01-06T10:44:38.408Z,8.00
2023-01-06T10:49:40.236Z,8.00
2023-01-06T10:54:43.236Z,8.10
2023-01-06T11:00:14.921Z,8.10
2023-01-06T11:05:26.051Z,8.20
2023-01-06T11:10:32.268Z,8.30
2023-01-06T11:15:41.268Z,8.40
2023-01-06T11:20:43.237Z,8.40
2023-01-06T11:26:04.829Z,8.60
2023-01-06T11:31:14.150Z,8.70
2023-01-06T11:36:16.843Z,8.70
2023-01-06T11:41:30.893Z,8.70
2023-01-06T11:46:32.963Z,8.90
2023-01-06T11:51:43.856Z,9.20
2023-01-06T11:56:57.904Z,9.10
2023-01-06T12:02:02.580Z,9.80
2023-01-06T12:07:32.447Z,10.10
2023-01-06T12:12:34.244Z,10.10
2023-01-06T12:17:47.958Z,9.90
2023-01-06T12:22:58.943Z,9.80
2023-01-06T12:28:05.496Z,9.70
2023-01-06T12:33:18.765Z,9.50
2023-01-06T12:38:57.154Z,9.40
2023-01-06T12:44:22.621Z,9.20
2023-01-06T12:49:43.259Z,9.20
2023-01-06T12:54:53.105Z,9.10
2023-01-06T13:00:01.189Z,9.00
2023-01-06T13:05:24.483Z,9.00
2023-01-06T13:10:38.417Z,8.90
2023-01-06T13:15:44.517Z,8.90
2023-01-06T13:21:03.762Z,8.90
2023-01-06T13:26:17.199Z,8.80
2023-01-06T13:31:45.180Z,8.80
2023-01-06T13:36:58.830Z,8.70
2023-01-06T13:42:03.363Z,8.70
2023-01-06T13:47:12.568Z,8.70
2023-01-06T13:52:19.611Z,8.70
2023-01-06T13:57:21.342Z,8.80
2023-01-06T14:02:52.301Z,8.70
2023-01-06T14:08:03.175Z,8.80
2023-01-06T14:13:19.071Z,8.80
2023-01-06T14:18:52.165Z,8.70
2023-01-06T14:23:58.617Z,8.70
2023-01-06T14:29:38.914Z,8.60
2023-01-06T14:35:21.809Z,8.60
2023-01-06T14:40:32.610Z,8.60
2023-01-06T14:45:39.328Z,8.50
2023-01-06T14:50:48.893Z,8.50
2023-01-06T14:55:51.488Z,8.60
2023-01-06T15:00:53.644Z,8.50
2023-01-06T15:06:20.873Z,8.50
2023-01-06T15:11:28.673Z,8.50
2023-01-06T15:16:37.709Z,8.50
2023-01-06T15:21:41.670Z,8.50
2023-01-06T15:26:43.406Z,8.40
2023-01-06T15:31:46.586Z,8.40
2023-01-06T15:36:52.188Z,8.40
2023-01-06T15:41:55.107Z,8.30
2023-01-06T15:47:11.942Z,8.40
2023-01-06T15:52:26.869Z,8.30
2023-01-06T15:57:33.235Z,8.20
2023-01-06T16:02:35.396Z,8.20
2023-01-06T16:07:40.416Z,8.20
2023-01-06T16:12:42.265Z,8.20
2023-01-06T16:17:47.359Z,8.10
2023-01-06T16:22:54.772Z,8.10
2023-01-06T16:27:59.191Z,8.10
2023-01-06T16:33:01.113Z,8.10
2023-01-06T16:38:03.466Z,8.00
2023-01-06T16:43:05.268Z,8.00
2023-01-06T16:48:07.090Z,8.00
2023-01-06T16:53:27.679Z,8.00
2023-01-06T16:58:32.796Z,8.00
2023-01-06T17:03:38.196Z,7.90
2023-01-06T17:08:40.595Z,7.90
2023-01-06T17:13:46.830Z,7.90
2023-01-06T17:18:53.418Z,7.90
2023-01-06T17:24:12.578Z,7.80
2023-01-06T17:29:16.866Z,7.80
2023-01-06T17:34:29.425Z,7.80
2023-01-06T17:39:37.292Z,7.80
2023-01-06T17:44:39.351Z,7.80
2023-01-06T17:49:43.740Z,7.80
2023-01-06T17:55:15.785Z,7.80
2023-01-06T18:00:24.635Z,7.80
2023-01-06T18:05:26.471Z,7.70
2023-01-06T18:10:28.383Z,7.70
2023-01-06T18:15:33.235Z,7.70
2023-01-06T18:20:34.968Z,7.70
2023-01-06T18:25:36.732Z,7.70
2023-01-06T18:30:38.659Z,7.60
2023-01-06T18:35:40.495Z,7.60
2023-01-06T18:40:44.618Z,7.60
2023-01-06T18:45:46.508Z,7.60
2023-01-06T18:50:50.741Z,7.50
2023-01-06T18:56:04.460Z,7.50
2023-01-06T19:01:19.533Z,7.50
2023-01-06T19:06:35.807Z,7.50
2023-01-06T19:11:37.889Z,7.50
2023-01-06T19:16:51.218Z,7.40
2023-01-06T19:22:00.222Z,7.40
2023-01-06T19:27:02.155Z,7.40
2023-01-06T19:32:13.818Z,7.40
2023-01-06T19:37:17.913Z,7.40
2023-01-06T19:42:27.326Z,7.40
2023-01-06T19:47:35.716Z,7.40
2023-01-06T19:52:39.532Z,7.30
2023-01-06T19:57:44.306Z,7.30
2023-01-06T20:02:46.733Z,7.30
2023-01-06T20:07:48.618Z,7.40
2023-01-06T20:12:50.470Z,7.30
2023-01-06T20:17:52.283Z,7.30
2023-01-06T20:22:54.114Z,7.30
2023-01-06T20:27:56.006Z,7.30
2023-01-06T20:32:57.776Z,7.30
2023-01-06T20:37:59.617Z,7.30
2023-01-06T20:43:01.467Z,7.20
2023-01-06T20:48:03.502Z,7.20
2023-01-06T20:53:05.583Z,7.20
2023-01-06T20:58:07.579Z,7.20
2023-01-06T21:03:09.396Z,7.20
2023-01-06T21:08:11.231Z,7.20
2023-01-06T21:13:13.027Z,7.20
2023-01-06T21:18:14.764Z,7.20
2023-01-06T21:23:16.735Z,7.20
2023-01-06T21:28:18.548Z,7.20
2023-01-06T21:33:21.664Z,7.20
2023-01-06T21:38:23.696Z,7.20
2023-01-06T21:43:25.438Z,7.20
2023-01-06T21:48:27.173Z,7.20
2023-01-06T21:53:30.829Z,7.10
2023-01-06T21:58:32.648Z,7.20
2023-01-06T22:03:34.735Z,7.20
2023-01-06T22:08:36.903Z,7.20
2023-01-06T22:13:40.251Z,7.20
2023-01-06T22:18:42.941Z,7.20
2023-01-06T22:23:44.807Z,7.10
2023-01-06T22:28:46.541Z,7.10
2023-01-06T22:33:48.453Z,7.10
2023-01-06T22:38:51.118Z,7.10
2023-01-06T22:43:52.880Z,7.10
2023-01-06T22:48:54.742Z,7.10
2023-01-06T22:53:57.115Z,7.20
2023-01-06T22:58:59.065Z,7.10
2023-01-06T23:04:03.109Z,7.20
2023-01-06T23:09:04.841Z,7.20
2023-01-06T23:14:07.211Z,7.20
2023-01-06T23:19:12.823Z,7.10
2023-01-06T23:24:14.626Z,7.10
2023-01-06T23:29:16.430Z,7.10
2023-01-06T23:34:18.894Z,7.10
2023-01-06T23:39:20.727Z,7.10
2023-01-06T23:44:22.461Z,7.10
2023-01-06T23:49:24.210Z,7.10
2023-01-06T23:54:25.912Z,7.10
2023-01-06T23:59:27.637Z,7.10
